Flight Track Log - Related Links

Times and Time Zones

All times are in EDT time to prevent confusion due to time zone crossing. See the MAL7050 flight status page for this flight to view local times or setup timezone preferences in your user account.

Time Position Orientation Groundspeed Altitude Reporting Facility
EDT Latitude Longitude Course Direction KTS MPH feet Rate Location/Type
Wed 05:24:21 AM 49.9167 -97.2500 285° West 160 184 2,500  Level Winnipeg Center
Wed 05:25:21 AM 49.9333 -97.3500 285° West 230 265 4,700 2,700 Climbing Winnipeg Center
Wed 05:26:21 AM 49.9500 -97.4667 283° West 270 311 7,900 3,050 Climbing Winnipeg Center
Wed 05:27:21 AM 49.9667 -97.5667 285° West 280 322 10,800 2,200 Climbing Winnipeg Center
Wed 05:28:21 AM 50.0000 -97.7167 289° West 350 403 12,300 2,000 Climbing Winnipeg Center
Wed 05:29:21 AM 50.0167 -97.8833 279° West 370 426 14,800 2,400 Climbing Winnipeg Center
Wed 05:30:21 AM 50.0167 -98.0333 270° West 380 437 17,100 2,450 Climbing Winnipeg Center
Wed 05:31:21 AM 50.0500 -98.1833 289° West 390 449 19,700 2,250 Climbing Winnipeg Center
Wed 05:32:21 AM 50.0667 -98.3667 278° West 400 460 21,600 2,100 Climbing Winnipeg Center
Wed 05:33:21 AM 50.1000 -98.5333 287° West 410 472 23,900 1,950 Climbing Winnipeg Center
Wed 05:34:21 AM 50.1167 -98.7167 278° West 410 472 25,500 1,600 Climbing Winnipeg Center
Wed 05:35:21 AM 50.1500 -98.9000 286° West 420 483 27,100 1,500 Climbing Winnipeg Center
Wed 05:36:21 AM 50.1833 -99.0833 286° West 430 495 28,500 1,800 Climbing Winnipeg Center
Wed 05:37:21 AM 50.1833 -99.2667 270° West 430 495 30,700 2,050 Climbing Winnipeg Center
Wed 05:38:21 AM 50.2167 -99.4167 289° West 420 483 32,600 1,850 Climbing Winnipeg Center
Wed 05:39:21 AM 50.2333 -99.6000 278° West 410 472 34,400 1,650 Climbing Winnipeg Center
Wed 05:40:21 AM 50.2667 -99.7667 287° West 400 460 35,900 1,350 Climbing Winnipeg Center
Wed 05:41:21 AM 50.2833 -99.9500 278° West 390 449 37,100 1,050 Climbing Winnipeg Center
Wed 05:42:21 AM 50.3000 -100.1167 279° West 390 449 38,000 650 Climbing Winnipeg Center
Wed 05:43:21 AM 50.3167 -100.3000 278° West 390 449 38,400 500 Climbing Winnipeg Center
Wed 05:44:21 AM 50.3500 -100.4500 289° West 400 460 39,000 600 Climbing Winnipeg Center
Wed 05:45:21 AM 50.3500 -100.6167 270° West 410 472 39,600 500 Climbing Winnipeg Center
Wed 05:46:21 AM 50.3833 -100.8000 286° West 410 472 40,000 200 Climbing Winnipeg Center
Wed 05:47:21 AM 50.4000 -100.9833 278° West 410 472 40,000  Level Winnipeg Center
Wed 05:48:21 AM 50.4167 -101.1667 278° West 410 472 40,000  Level Winnipeg Center
Wed 05:49:21 AM 50.4333 -101.3333 279° West 410 472 40,000  Level Winnipeg Center
Wed 05:50:21 AM 50.4667 -101.5167 286° West 420 483 40,000  Level Winnipeg Center
Wed 05:51:21 AM 50.4667 -101.7000 270° West 420 483 40,000  Level Winnipeg Center
Wed 05:52:21 AM 50.5000 -101.8667 288° West 420 483 40,000  Level Winnipeg Center
Wed 05:53:21 AM 50.5167 -102.0500 278° West 410 472 40,000  Level Winnipeg Center
Wed 05:54:21 AM 50.5333 -102.2333 278° West 410 472 40,000  Level Winnipeg Center
Wed 05:55:21 AM 50.5500 -102.4000 279° West 410 472 40,000  Level Winnipeg Center
Wed 05:56:21 AM 50.5667 -102.5833 278° West 400 460 40,000  Level Winnipeg Center
Wed 05:57:21 AM 50.5833 -102.7500 279° West 410 472 40,000  Level Winnipeg Center
Wed 05:58:21 AM 50.6000 -102.9333 278° West 400 460 40,000  Level Winnipeg Center
Wed 05:59:21 AM 50.6167 -103.1167 278° West 400 460 40,000  Level Winnipeg Center
Wed 06:00:21 AM 50.6333 -103.3000 278° West 400 460 40,000  Level Winnipeg Center
Wed 06:01:21 AM 50.6500 -103.4667 279° West 410 472 40,000  Level Winnipeg Center
Wed 06:02:21 AM 50.6500 -103.6500 270° West 410 472 40,000  Level Winnipeg Center
Wed 06:03:21 AM 50.6833 -103.8167 288° West 410 472 40,000  Level Winnipeg Center
Wed 06:04:21 AM 50.6833 -104.0000 270° West 410 472 40,000  Level Winnipeg Center
Wed 06:05:21 AM 50.7000 -104.1833 278° West 410 472 40,000  Level Winnipeg Center
Wed 06:06:21 AM 50.7167 -104.3500 279° West 410 472 40,000  Level Winnipeg Center
Wed 06:07:21 AM 50.7333 -104.5333 278° West 410 472 40,000  Level Winnipeg Center
Wed 06:08:21 AM 50.7500 -104.7000 279° West 410 472 40,000  Level Winnipeg Center
Wed 06:09:21 AM 50.7667 -104.8833 278° West 410 472 40,000  Level Winnipeg Center
Wed 06:10:21 AM 50.7833 -105.0833 278° West 410 472 40,000  Level Winnipeg Center
Wed 06:11:21 AM 50.7833 -105.2667 270° West 410 472 40,000  Level Winnipeg Center
Wed 06:12:21 AM 50.8167 -105.4333 288° West 410 472 40,000  Level Winnipeg Center
Wed 06:13:21 AM 50.8167 -105.6167 270° West 410 472 40,000  Level Winnipeg Center
Wed 06:13:57 AM 50.8167 -105.6833 270° West 430 495 40,000  Level Edmonton Center
Wed 06:14:57 AM 50.8333 -105.9000 277° West 430 495 40,000  Level Edmonton Center
Wed 06:15:21 AM 50.8333 -105.9833 270° West 410 472 40,000  Level Winnipeg Center
Wed 06:16:21 AM 50.8500 -106.1500 279° West 410 472 40,000  Level Winnipeg Center
Wed 06:17:21 AM 50.8667 -106.3500 278° West 410 472 40,000  Level Winnipeg Center
Wed 06:17:57 AM 50.8500 -106.4000 242° Southwest 420 483 40,000  Level Edmonton Center
Wed 06:18:57 AM 50.8667 -106.6167 277° West 410 472 40,000  Level Edmonton Center
Wed 06:19:21 AM 50.9000 -106.7000 302° West 410 472 40,000  Level Winnipeg Center
Wed 06:20:21 AM 50.9000 -106.8833 270° West 410 472 40,000  Level Winnipeg Center
Wed 06:20:57 AM 50.9000 -106.9667 270° West 400 460 40,000  Level Edmonton Center
Wed 06:21:57 AM 50.9000 -107.1500 270° West 400 460 40,000  Level Edmonton Center
Wed 06:22:21 AM 50.9167 -107.2667 283° West 430 495 40,000  Level Winnipeg Center
Wed 06:23:21 AM 50.9333 -107.4500 278° West 420 483 40,000  Level Winnipeg Center
Wed 06:24:21 AM 50.9333 -107.6167 270° West 420 483 40,000  Level Winnipeg Center
Wed 06:25:21 AM 50.9500 -107.8000 278° West 420 483 40,000  Level Winnipeg Center
Wed 06:26:21 AM 50.9667 -108.0000 278° West 420 483 40,000  Level Winnipeg Center
Wed 06:27:21 AM 50.9667 -108.1500 270° West 420 483 40,000  Level Winnipeg Center
Wed 06:27:57 AM 50.9500 -108.2667 257° West 410 472 40,000  Level Edmonton Center
Wed 06:28:57 AM 50.9667 -108.4167 280° West 410 472 40,000  Level Edmonton Center
Wed 06:29:21 AM 50.9833 -108.5333 283° West 420 483 40,000  Level Winnipeg Center
Wed 06:29:57 AM 50.9667 -108.6333 255° West 410 472 40,000  Level Edmonton Center
Wed 06:30:57 AM 50.9833 -108.8000 279° West 410 472 40,000  Level Edmonton Center
Wed 06:31:21 AM 51.0000 -108.9167 283° West 420 483 40,000  Level Winnipeg Center
Wed 06:32:21 AM 51.0000 -109.1000 270° West 420 483 40,000  Level Winnipeg Center
Wed 06:33:21 AM 51.0167 -109.2667 279° West 410 472 40,000  Level Winnipeg Center
Wed 06:34:21 AM 51.0333 -109.4333 279° West 410 472 40,000  Level Winnipeg Center
Wed 06:35:21 AM 51.0500 -109.6333 278° West 410 472 40,000  Level Winnipeg Center
Wed 06:36:21 AM 51.0500 -109.8167 270° West 420 483 40,000  Level Winnipeg Center
Wed 06:36:57 AM 51.0667 -109.9000 288° West 410 472 40,000  Level Edmonton Center
Wed 06:37:57 AM 51.0667 -110.0667 270° West 410 472 40,000  Level Edmonton Center
Wed 06:38:21 AM 51.0833 -110.1833 283° West 420 483 40,000  Level Winnipeg Center
Wed 06:39:21 AM 51.1000 -110.3667 278° West 420 483 40,000  Level Winnipeg Center
Wed 06:39:57 AM 51.0833 -110.4500 252° West 420 483 40,000  Level Edmonton Center
Wed 06:40:57 AM 51.1167 -110.6333 286° West 420 483 40,000  Level Edmonton Center
Wed 06:41:57 AM 51.1167 -110.8333 270° West 420 483 40,000  Level Edmonton Center
Wed 06:42:21 AM 51.1333 -110.9167 288° West 420 483 40,000  Level Winnipeg Center
Wed 06:42:57 AM 51.1167 -111.0167 255° West 420 483 40,000  Level Edmonton Center
Wed 06:43:21 AM 51.1500 -111.1167 298° West 430 495 40,000  Level Winnipeg Center
Wed 06:43:57 AM 51.1500 -111.2167 270° West 420 483 40,000 -563 Level Edmonton Center
Wed 06:44:57 AM 51.1500 -111.4000 270° West 420 483 39,100 -1,500 Descending Edmonton Center
Wed 06:45:57 AM 51.1667 -111.5667 279° West 410 472 37,000 -2,350 Descending Edmonton Center
Wed 06:46:57 AM 51.1667 -111.7500 270° West 400 460 34,400 -3,000 Descending Edmonton Center
Wed 06:47:57 AM 51.1833 -111.9167 279° West 410 472 31,000 -3,600 Descending Edmonton Center
Wed 06:48:57 AM 51.2000 -112.1000 278° West 420 483 27,200 -3,550 Descending Edmonton Center
Wed 06:49:57 AM 51.2167 -112.3000 278° West 430 495 23,900 -3,200 Descending Edmonton Center
Wed 06:50:57 AM 51.2167 -112.4833 270° West 420 483 20,800 -3,050 Descending Edmonton Center
Wed 06:51:57 AM 51.2167 -112.6833 270° West 410 472 17,800 -2,650 Descending Edmonton Center
Wed 06:52:57 AM 51.2333 -112.8500 279° West 390 449 15,500 -2,400 Descending Edmonton Center
Wed 06:53:57 AM 51.2333 -113.0000 270° West 380 437 13,000 -2,300 Descending Edmonton Center
Wed 06:54:57 AM 51.2500 -113.1667 279° West 360 414 10,900 -1,300 Descending Edmonton Center
Wed 06:55:57 AM 51.2667 -113.3167 280° West 310 357 10,400 -600 Descending Edmonton Center
Wed 06:56:57 AM 51.2500 -113.4500 259° West 260 299 9,700 -850 Descending Edmonton Center
Wed 06:57:57 AM 51.2667 -113.5500 285° West 260 299 8,700 -1,100 Descending Edmonton Center
Wed 06:58:57 AM 51.2667 -113.6667 270° West 260 299 7,500 -1,050 Descending Edmonton Center
Wed 06:59:57 AM 51.2667 -113.8000 270° West 270 311 6,600 -500 Descending Edmonton Center
Wed 07:00:57 AM 51.2833 -113.9167 283° West 260 299 6,500 -50 Descending Edmonton Center
Wed 07:01:57 AM 51.2667 -114.0167 255° West 210 242 6,500 -50 Level Edmonton Center
Wed 07:02:57 AM 51.2333 -114.0333 197° South 130 150 6,400 -400 Descending Edmonton Center
Wed 07:03:57 AM 51.2000 -114.0333 180° South 110 127 5,700 -600 Descending Edmonton Center
Wed 07:04:57 AM 51.1833 -114.0500 212° Southwest 110 127 5,200 -600 Descending Edmonton Center
Wed 07:05:57 AM 51.1500 -114.0500 180° South 110 127 4,500 -600 Descending Edmonton Center
Wed 07:06:57 AM 51.1167 -114.0333 163° South 100 115 4,000 -500 Descending Edmonton Center

Login

Don't have an account? Register now (free) for customized features, flight alerts, and more!